Gener8 Hector — D5JF3 — position and weather

sailwx.info

Track history (hours):
 
Tides and Currents Weather Stations Pressure Air Temp Water Temp Dewpoint Dewpoint Depression Visibility Wind Speed Wind Dir Waves Ship Positions

Gener8 Hector

Last reported at 2018-Jun-22 15:06 UTC. Time now 2018-Jun-24 18:52 UTC.
Position N 01°34' E 104°38'.

Length 333 m; draft 19.9 m.

Type: Tanker. MMSI: 636017082.

Date/timePositionNaut miles runAvg speedWind from/ knotsBaromVisibWave heightAir tempDewpointWater temp
2018-Jun-22 15:06N 01°34' E 104°38'4 9.7
2018-Jun-22 14:39N 01°30' E 104°36'3 8.6
2018-Jun-22 14:18N 01°28' E 104°34'411.5
2018-Jun-22 13:59N 01°26' E 104°31'612.1
2018-Jun-22 13:30N 01°22' E 104°26'612.2
2018-Jun-22 12:58N 01°18' E 104°21'612.0
2018-Jun-22 12:30N 01°17' E 104°16'612.3
2018-Jun-22 11:59N 01°16' E 104°10'612.4
2018-Jun-22 11:30N 01°15' E 104°04'4 7.4
2018-Jun-22 11:00N 01°15' E 103°60'2 3.7
2018-Jun-22 10:30N 01°14' E 103°58'4 8.1
2018-Jun-22 10:00N 01°13' E 103°54'5 9.4
2018-Jun-22 09:30N 01°11' E 103°50'4 8.6
2018-Jun-22 09:00N 01°09' E 103°46'5 9.2
2018-Jun-22 08:30N 01°06' E 103°43'5 9.2
2018-Jun-22 08:01N 01°03' E 103°39'510.2
2018-Jun-22 07:30N 01°06' E 103°34'611.8
2018-Jun-22 06:59N 01°09' E 103°29'511.0
2018-Jun-22 06:30N 01°12' E 103°25'612.3
2018-Jun-22 05:59N 01°16' E 103°20'612.4
2018-Jun-22 05:29N 01°20' E 103°15'712.4
2018-Jun-22 04:57N 01°24' E 103°10'712.6
2018-Jun-22 04:22N 01°28' E 103°04'  
Track history (hours):
 
Tides and Currents Weather Stations Pressure Air Temp Water Temp Dewpoint Dewpoint Depression Visibility Wind Speed Wind Dir Waves Ship Positions

Gener8 Hector

Last reported at 2018-Jun-22 15:06 UTC. Time now 2018-Jun-24 18:52 UTC.
Position N 01°34' E 104°38'.

Length 333 m; draft 19.9 m.

Type: Tanker. MMSI: 636017082.

Date/timePositionNaut miles runAvg speedWind from/ knotsBaromVisibWave heightAir tempDewpointWater temp
2018-Jun-22 15:06N 01°34' E 104°38'4 9.7
2018-Jun-22 14:39N 01°30' E 104°36'3 8.6
2018-Jun-22 14:18N 01°28' E 104°34'411.5
2018-Jun-22 13:59N 01°26' E 104°31'612.1
2018-Jun-22 13:30N 01°22' E 104°26'612.2
2018-Jun-22 12:58N 01°18' E 104°21'612.0
2018-Jun-22 12:30N 01°17' E 104°16'612.3
2018-Jun-22 11:59N 01°16' E 104°10'612.4
2018-Jun-22 11:30N 01°15' E 104°04'4 7.4
2018-Jun-22 11:00N 01°15' E 103°60'2 3.7
2018-Jun-22 10:30N 01°14' E 103°58'4 8.1
2018-Jun-22 10:00N 01°13' E 103°54'5 9.4
2018-Jun-22 09:30N 01°11' E 103°50'4 8.6
2018-Jun-22 09:00N 01°09' E 103°46'5 9.2
2018-Jun-22 08:30N 01°06' E 103°43'5 9.2
2018-Jun-22 08:01N 01°03' E 103°39'510.2
2018-Jun-22 07:30N 01°06' E 103°34'611.8
2018-Jun-22 06:59N 01°09' E 103°29'511.0
2018-Jun-22 06:30N 01°12' E 103°25'612.3
2018-Jun-22 05:59N 01°16' E 103°20'612.4
2018-Jun-22 05:29N 01°20' E 103°15'712.4
2018-Jun-22 04:57N 01°24' E 103°10'712.6
2018-Jun-22 04:22N 01°28' E 103°04'  

Dump ship's entire track history